sensor_id;sensor_type;location;lat;lon;timestamp;P1;durP1;ratioP1;P2;durP2;ratioP2
8480;SDS011;4277;51.354;6.740;2023-01-16T00:01:48;3.27;;;0.80;;
8480;SDS011;4277;51.354;6.740;2023-01-16T00:04:14;3.03;;;0.80;;
8480;SDS011;4277;51.354;6.740;2023-01-16T00:06:40;2.60;;;0.90;;
8480;SDS011;4277;51.354;6.740;2023-01-16T00:09:06;3.23;;;0.80;;
8480;SDS011;4277;51.354;6.740;2023-01-16T00:11:32;3.13;;;0.90;;
8480;SDS011;4277;51.354;6.740;2023-01-16T00:13:58;1.43;;;0.73;;
8480;SDS011;4277;51.354;6.740;2023-01-16T00:16:25;1.73;;;0.60;;
8480;SDS011;4277;51.354;6.740;2023-01-16T00:18:51;4.60;;;0.90;;
8480;SDS011;4277;51.354;6.740;2023-01-16T00:21:17;2.70;;;1.10;;
8480;SDS011;4277;51.354;6.740;2023-01-16T00:23:44;2.70;;;0.90;;
8480;SDS011;4277;51.354;6.740;2023-01-16T00:26:10;3.83;;;1.10;;
8480;SDS011;4277;51.354;6.740;2023-01-16T00:28:37;2.60;;;1.00;;
8480;SDS011;4277;51.354;6.740;2023-01-16T00:31:03;2.70;;;0.80;;
8480;SDS011;4277;51.354;6.740;2023-01-16T00:33:30;4.00;;;0.80;;
8480;SDS011;4277;51.354;6.740;2023-01-16T00:35:56;2.57;;;0.73;;
8480;SDS011;4277;51.354;6.740;2023-01-16T00:38:22;5.03;;;1.13;;
8480;SDS011;4277;51.354;6.740;2023-01-16T00:40:47;2.67;;;0.70;;
8480;SDS011;4277;51.354;6.740;2023-01-16T00:43:13;3.07;;;0.83;;
8480;SDS011;4277;51.354;6.740;2023-01-16T00:45:39;3.10;;;0.80;;
8480;SDS011;4277;51.354;6.740;2023-01-16T00:48:06;2.90;;;0.73;;
8480;SDS011;4277;51.354;6.740;2023-01-16T00:50:32;3.33;;;1.13;;
8480;SDS011;4277;51.354;6.740;2023-01-16T00:52:58;1.97;;;0.60;;
8480;SDS011;4277;51.354;6.740;2023-01-16T00:55:24;3.13;;;1.00;;
8480;SDS011;4277;51.354;6.740;2023-01-16T00:57:50;2.50;;;0.77;;
8480;SDS011;4277;51.354;6.740;2023-01-16T01:00:19;3.50;;;1.10;;
8480;SDS011;4277;51.354;6.740;2023-01-16T01:02:49;1.77;;;0.80;;
8480;SDS011;4277;51.354;6.740;2023-01-16T01:05:15;2.63;;;0.80;;
8480;SDS011;4277;51.354;6.740;2023-01-16T01:07:41;1.63;;;0.70;;
8480;SDS011;4277;51.354;6.740;2023-01-16T01:10:08;1.77;;;0.70;;
8480;SDS011;4277;51.354;6.740;2023-01-16T01:12:34;3.40;;;0.83;;
8480;SDS011;4277;51.354;6.740;2023-01-16T01:15:00;2.80;;;0.77;;
8480;SDS011;4277;51.354;6.740;2023-01-16T01:17:26;2.93;;;0.97;;
8480;SDS011;4277;51.354;6.740;2023-01-16T01:19:51;4.83;;;1.03;;
8480;SDS011;4277;51.354;6.740;2023-01-16T01:22:17;5.93;;;1.20;;
8480;SDS011;4277;51.354;6.740;2023-01-16T01:24:46;2.97;;;0.77;;
8480;SDS011;4277;51.354;6.740;2023-01-16T01:27:12;4.38;;;1.20;;
8480;SDS011;4277;51.354;6.740;2023-01-16T01:29:38;3.27;;;1.07;;
8480;SDS011;4277;51.354;6.740;2023-01-16T01:32:04;5.30;;;1.00;;
8480;SDS011;4277;51.354;6.740;2023-01-16T01:34:31;3.13;;;0.97;;
8480;SDS011;4277;51.354;6.740;2023-01-16T01:36:59;2.73;;;0.90;;
8480;SDS011;4277;51.354;6.740;2023-01-16T01:39:25;2.73;;;0.83;;
8480;SDS011;4277;51.354;6.740;2023-01-16T01:41:50;2.03;;;0.80;;
8480;SDS011;4277;51.354;6.740;2023-01-16T01:44:44;3.73;;;0.80;;
8480;SDS011;4277;51.354;6.740;2023-01-16T01:47:11;2.63;;;0.87;;
8480;SDS011;4277;51.354;6.740;2023-01-16T01:49:38;4.10;;;1.00;;
8480;SDS011;4277;51.354;6.740;2023-01-16T01:52:04;4.57;;;1.20;;
8480;SDS011;4277;51.354;6.740;2023-01-16T01:54:50;4.67;;;1.00;;
8480;SDS011;4277;51.354;6.740;2023-01-16T01:57:28;3.73;;;1.10;;
8480;SDS011;4277;51.354;6.740;2023-01-16T01:59:59;4.50;;;0.87;;
8480;SDS011;4277;51.354;6.740;2023-01-16T02:02:27;3.40;;;1.00;;
8480;SDS011;4277;51.354;6.740;2023-01-16T02:04:55;3.60;;;0.83;;
8480;SDS011;4277;51.354;6.740;2023-01-16T02:07:22;1.83;;;0.80;;
8480;SDS011;4277;51.354;6.740;2023-01-16T02:09:50;2.90;;;0.73;;
8480;SDS011;4277;51.354;6.740;2023-01-16T02:12:17;4.60;;;1.30;;
8480;SDS011;4277;51.354;6.740;2023-01-16T02:14:44;4.60;;;0.80;;
8480;SDS011;4277;51.354;6.740;2023-01-16T02:17:13;3.10;;;1.00;;
8480;SDS011;4277;51.354;6.740;2023-01-16T02:33:19;4.03;;;0.90;;
8480;SDS011;4277;51.354;6.740;2023-01-16T02:43:46;3.00;;;0.77;;
8480;SDS011;4277;51.354;6.740;2023-01-16T02:48:50;4.80;;;1.00;;
8480;SDS011;4277;51.354;6.740;2023-01-16T02:56:52;3.60;;;1.00;;
8480;SDS011;4277;51.354;6.740;2023-01-16T02:59:20;1.93;;;0.57;;
8480;SDS011;4277;51.354;6.740;2023-01-16T03:01:46;5.00;;;0.90;;
8480;SDS011;4277;51.354;6.740;2023-01-16T03:07:02;2.67;;;0.80;;
8480;SDS011;4277;51.354;6.740;2023-01-16T03:09:38;2.80;;;1.23;;
8480;SDS011;4277;51.354;6.740;2023-01-16T03:15:14;1.33;;;0.70;;
8480;SDS011;4277;51.354;6.740;2023-01-16T03:20:10;2.07;;;0.73;;
8480;SDS011;4277;51.354;6.740;2023-01-16T03:22:40;3.07;;;0.70;;
8480;SDS011;4277;51.354;6.740;2023-01-16T03:25:12;3.17;;;0.80;;
8480;SDS011;4277;51.354;6.740;2023-01-16T03:27:45;3.10;;;0.90;;
8480;SDS011;4277;51.354;6.740;2023-01-16T03:30:14;2.97;;;0.70;;
8480;SDS011;4277;51.354;6.740;2023-01-16T03:32:45;2.80;;;0.80;;
8480;SDS011;4277;51.354;6.740;2023-01-16T03:35:13;3.73;;;1.10;;
8480;SDS011;4277;51.354;6.740;2023-01-16T03:37:42;3.20;;;0.93;;
8480;SDS011;4277;51.354;6.740;2023-01-16T03:40:11;1.33;;;0.67;;
8480;SDS011;4277;51.354;6.740;2023-01-16T03:45:11;3.13;;;0.60;;
8480;SDS011;4277;51.354;6.740;2023-01-16T03:47:40;3.07;;;0.70;;
8480;SDS011;4277;51.354;6.740;2023-01-16T03:50:08;1.23;;;0.57;;
8480;SDS011;4277;51.354;6.740;2023-01-16T03:52:36;1.93;;;0.40;;
8480;SDS011;4277;51.354;6.740;2023-01-16T03:57:40;0.93;;;0.40;;
8480;SDS011;4277;51.354;6.740;2023-01-16T04:00:07;2.17;;;0.33;;
8480;SDS011;4277;51.354;6.740;2023-01-16T04:03:36;2.93;;;0.50;;
8480;SDS011;4277;51.354;6.740;2023-01-16T04:05:29;2.17;;;0.50;;
8480;SDS011;4277;51.354;6.740;2023-01-16T04:10:23;2.63;;;0.80;;
8480;SDS011;4277;51.354;6.740;2023-01-16T04:12:51;1.20;;;0.40;;
8480;SDS011;4277;51.354;6.740;2023-01-16T04:15:18;0.70;;;0.40;;
8480;SDS011;4277;51.354;6.740;2023-01-16T04:17:45;1.37;;;0.40;;
8480;SDS011;4277;51.354;6.740;2023-01-16T04:20:11;0.50;;;0.30;;
8480;SDS011;4277;51.354;6.740;2023-01-16T04:22:37;2.03;;;0.50;;
8480;SDS011;4277;51.354;6.740;2023-01-16T04:25:06;1.47;;;0.50;;
8480;SDS011;4277;51.354;6.740;2023-01-16T04:27:32;1.80;;;0.57;;
8480;SDS011;4277;51.354;6.740;2023-01-16T04:29:58;1.10;;;0.70;;
8480;SDS011;4277;51.354;6.740;2023-01-16T04:32:24;0.90;;;0.30;;
8480;SDS011;4277;51.354;6.740;2023-01-16T04:34:50;1.10;;;0.60;;
8480;SDS011;4277;51.354;6.740;2023-01-16T04:37:17;1.77;;;0.50;;
8480;SDS011;4277;51.354;6.740;2023-01-16T04:39:43;0.63;;;0.40;;
8480;SDS011;4277;51.354;6.740;2023-01-16T04:42:11;1.40;;;0.50;;
8480;SDS011;4277;51.354;6.740;2023-01-16T04:44:37;1.53;;;0.60;;
8480;SDS011;4277;51.354;6.740;2023-01-16T04:47:03;1.57;;;0.47;;
8480;SDS011;4277;51.354;6.740;2023-01-16T04:49:29;1.53;;;0.63;;
8480;SDS011;4277;51.354;6.740;2023-01-16T04:51:55;1.30;;;0.60;;
8480;SDS011;4277;51.354;6.740;2023-01-16T04:54:21;1.43;;;0.40;;
8480;SDS011;4277;51.354;6.740;2023-01-16T04:56:47;2.27;;;0.53;;
8480;SDS011;4277;51.354;6.740;2023-01-16T04:59:13;1.33;;;0.60;;
8480;SDS011;4277;51.354;6.740;2023-01-16T05:01:40;2.63;;;0.60;;
8480;SDS011;4277;51.354;6.740;2023-01-16T05:04:07;1.63;;;0.67;;
8480;SDS011;4277;51.354;6.740;2023-01-16T05:06:33;1.13;;;0.63;;
8480;SDS011;4277;51.354;6.740;2023-01-16T05:09:00;2.17;;;0.70;;
8480;SDS011;4277;51.354;6.740;2023-01-16T05:11:26;4.17;;;0.70;;
8480;SDS011;4277;51.354;6.740;2023-01-16T05:13:52;2.77;;;0.50;;
8480;SDS011;4277;51.354;6.740;2023-01-16T05:16:17;2.23;;;0.60;;
8480;SDS011;4277;51.354;6.740;2023-01-16T05:18:43;2.83;;;0.50;;
8480;SDS011;4277;51.354;6.740;2023-01-16T05:21:09;4.23;;;0.80;;
8480;SDS011;4277;51.354;6.740;2023-01-16T05:23:35;1.83;;;0.80;;
8480;SDS011;4277;51.354;6.740;2023-01-16T05:26:02;1.20;;;0.53;;
8480;SDS011;4277;51.354;6.740;2023-01-16T05:28:28;2.70;;;0.80;;
8480;SDS011;4277;51.354;6.740;2023-01-16T05:30:54;1.53;;;0.60;;
8480;SDS011;4277;51.354;6.740;2023-01-16T05:33:20;2.47;;;0.80;;
8480;SDS011;4277;51.354;6.740;2023-01-16T05:35:47;2.87;;;0.80;;
8480;SDS011;4277;51.354;6.740;2023-01-16T05:38:13;1.90;;;0.50;;
8480;SDS011;4277;51.354;6.740;2023-01-16T05:40:39;6.63;;;0.80;;
8480;SDS011;4277;51.354;6.740;2023-01-16T05:43:05;0.97;;;0.50;;
8480;SDS011;4277;51.354;6.740;2023-01-16T05:45:31;1.73;;;0.70;;
8480;SDS011;4277;51.354;6.740;2023-01-16T05:47:57;2.50;;;0.70;;
8480;SDS011;4277;51.354;6.740;2023-01-16T05:50:23;2.27;;;0.60;;
8480;SDS011;4277;51.354;6.740;2023-01-16T05:52:49;1.87;;;0.70;;
8480;SDS011;4277;51.354;6.740;2023-01-16T05:55:16;3.97;;;0.60;;
8480;SDS011;4277;51.354;6.740;2023-01-16T05:57:42;2.90;;;0.80;;
8480;SDS011;4277;51.354;6.740;2023-01-16T06:00:08;2.83;;;0.80;;
8480;SDS011;4277;51.354;6.740;2023-01-16T06:02:34;1.10;;;0.50;;
8480;SDS011;4277;51.354;6.740;2023-01-16T06:05:01;5.80;;;0.70;;
8480;SDS011;4277;51.354;6.740;2023-01-16T06:07:27;2.73;;;0.60;;
8480;SDS011;4277;51.354;6.740;2023-01-16T06:09:53;1.47;;;0.60;;
8480;SDS011;4277;51.354;6.740;2023-01-16T06:12:19;3.23;;;0.60;;
8480;SDS011;4277;51.354;6.740;2023-01-16T06:14:45;2.13;;;0.60;;
8480;SDS011;4277;51.354;6.740;2023-01-16T06:17:12;1.73;;;0.70;;
8480;SDS011;4277;51.354;6.740;2023-01-16T06:19:41;2.23;;;0.60;;
8480;SDS011;4277;51.354;6.740;2023-01-16T06:22:08;1.23;;;0.47;;
8480;SDS011;4277;51.354;6.740;2023-01-16T06:24:34;2.60;;;0.70;;
8480;SDS011;4277;51.354;6.740;2023-01-16T06:27:00;1.33;;;0.50;;
8480;SDS011;4277;51.354;6.740;2023-01-16T06:29:26;2.03;;;0.43;;
8480;SDS011;4277;51.354;6.740;2023-01-16T06:31:52;1.43;;;0.60;;
8480;SDS011;4277;51.354;6.740;2023-01-16T06:34:18;1.47;;;0.60;;
8480;SDS011;4277;51.354;6.740;2023-01-16T06:36:44;1.53;;;0.50;;
8480;SDS011;4277;51.354;6.740;2023-01-16T06:39:12;2.00;;;1.00;;
8480;SDS011;4277;51.354;6.740;2023-01-16T06:41:38;1.83;;;0.60;;
8480;SDS011;4277;51.354;6.740;2023-01-16T06:44:04;2.10;;;0.40;;
8480;SDS011;4277;51.354;6.740;2023-01-16T06:46:30;4.07;;;0.40;;
8480;SDS011;4277;51.354;6.740;2023-01-16T06:48:56;2.10;;;0.60;;
8480;SDS011;4277;51.354;6.740;2023-01-16T06:51:22;2.60;;;0.63;;
8480;SDS011;4277;51.354;6.740;2023-01-16T06:53:48;0.60;;;0.40;;
8480;SDS011;4277;51.354;6.740;2023-01-16T06:56:14;1.37;;;0.57;;
8480;SDS011;4277;51.354;6.740;2023-01-16T06:58:42;1.13;;;0.50;;
8480;SDS011;4277;51.354;6.740;2023-01-16T07:01:07;1.47;;;0.40;;
8480;SDS011;4277;51.354;6.740;2023-01-16T07:03:33;2.27;;;0.57;;
8480;SDS011;4277;51.354;6.740;2023-01-16T07:05:59;1.30;;;0.50;;
8480;SDS011;4277;51.354;6.740;2023-01-16T07:08:25;1.10;;;0.50;;
8480;SDS011;4277;51.354;6.740;2023-01-16T07:10:51;1.90;;;0.60;;
8480;SDS011;4277;51.354;6.740;2023-01-16T07:13:17;1.83;;;0.60;;
8480;SDS011;4277;51.354;6.740;2023-01-16T07:15:48;1.50;;;0.60;;
8480;SDS011;4277;51.354;6.740;2023-01-16T07:18:33;2.37;;;0.50;;
8480;SDS011;4277;51.354;6.740;2023-01-16T07:21:17;2.67;;;0.70;;
8480;SDS011;4277;51.354;6.740;2023-01-16T07:24:05;1.77;;;0.60;;
8480;SDS011;4277;51.354;6.740;2023-01-16T07:26:33;1.40;;;0.50;;
8480;SDS011;4277;51.354;6.740;2023-01-16T07:29:00;2.67;;;0.73;;
8480;SDS011;4277;51.354;6.740;2023-01-16T07:31:27;1.43;;;0.40;;
8480;SDS011;4277;51.354;6.740;2023-01-16T07:33:53;3.50;;;0.60;;
8480;SDS011;4277;51.354;6.740;2023-01-16T07:36:19;1.27;;;0.67;;
8480;SDS011;4277;51.354;6.740;2023-01-16T07:38:45;1.87;;;0.80;;
8480;SDS011;4277;51.354;6.740;2023-01-16T07:41:17;3.07;;;0.80;;
8480;SDS011;4277;51.354;6.740;2023-01-16T07:43:43;1.63;;;0.70;;
8480;SDS011;4277;51.354;6.740;2023-01-16T07:46:09;1.67;;;0.70;;
8480;SDS011;4277;51.354;6.740;2023-01-16T07:48:35;4.20;;;1.20;;
8480;SDS011;4277;51.354;6.740;2023-01-16T07:51:01;2.43;;;0.93;;
8480;SDS011;4277;51.354;6.740;2023-01-16T07:53:28;2.30;;;0.90;;
8480;SDS011;4277;51.354;6.740;2023-01-16T07:55:55;2.97;;;1.07;;
8480;SDS011;4277;51.354;6.740;2023-01-16T07:58:21;2.83;;;1.10;;
8480;SDS011;4277;51.354;6.740;2023-01-16T08:00:48;2.13;;;0.93;;
8480;SDS011;4277;51.354;6.740;2023-01-16T08:03:14;5.03;;;1.07;;
8480;SDS011;4277;51.354;6.740;2023-01-16T08:05:40;1.37;;;0.83;;
8480;SDS011;4277;51.354;6.740;2023-01-16T08:08:08;2.63;;;0.90;;
8480;SDS011;4277;51.354;6.740;2023-01-16T08:10:34;1.77;;;1.00;;
8480;SDS011;4277;51.354;6.740;2023-01-16T08:13:00;1.67;;;1.17;;
8480;SDS011;4277;51.354;6.740;2023-01-16T08:15:26;1.73;;;0.80;;
8480;SDS011;4277;51.354;6.740;2023-01-16T08:17:52;3.03;;;1.00;;
8480;SDS011;4277;51.354;6.740;2023-01-16T08:20:18;2.00;;;1.00;;
8480;SDS011;4277;51.354;6.740;2023-01-16T08:22:44;3.13;;;0.87;;
8480;SDS011;4277;51.354;6.740;2023-01-16T08:25:11;4.10;;;0.93;;
8480;SDS011;4277;51.354;6.740;2023-01-16T08:27:37;2.90;;;0.90;;
8480;SDS011;4277;51.354;6.740;2023-01-16T08:30:03;2.00;;;1.20;;
8480;SDS011;4277;51.354;6.740;2023-01-16T08:32:29;3.40;;;0.80;;
8480;SDS011;4277;51.354;6.740;2023-01-16T08:34:55;1.50;;;1.00;;
8480;SDS011;4277;51.354;6.740;2023-01-16T08:37:21;3.37;;;0.97;;
8480;SDS011;4277;51.354;6.740;2023-01-16T08:39:47;2.23;;;0.87;;
8480;SDS011;4277;51.354;6.740;2023-01-16T08:42:13;3.57;;;0.90;;
8480;SDS011;4277;51.354;6.740;2023-01-16T08:44:58;1.53;;;0.80;;
8480;SDS011;4277;51.354;6.740;2023-01-16T08:47:43;2.77;;;0.90;;
8480;SDS011;4277;51.354;6.740;2023-01-16T08:50:27;3.00;;;0.97;;
8480;SDS011;4277;51.354;6.740;2023-01-16T08:53:12;1.43;;;0.70;;
8480;SDS011;4277;51.354;6.740;2023-01-16T08:55:38;3.67;;;0.70;;
8480;SDS011;4277;51.354;6.740;2023-01-16T08:58:04;2.67;;;0.93;;
8480;SDS011;4277;51.354;6.740;2023-01-16T09:00:30;1.00;;;0.70;;
8480;SDS011;4277;51.354;6.740;2023-01-16T09:02:56;1.67;;;0.90;;
8480;SDS011;4277;51.354;6.740;2023-01-16T09:05:24;3.13;;;0.80;;
8480;SDS011;4277;51.354;6.740;2023-01-16T09:07:50;3.07;;;0.80;;
8480;SDS011;4277;51.354;6.740;2023-01-16T09:10:16;2.83;;;0.90;;
8480;SDS011;4277;51.354;6.740;2023-01-16T09:12:42;4.00;;;0.93;;
8480;SDS011;4277;51.354;6.740;2023-01-16T09:15:27;4.07;;;0.80;;
8480;SDS011;4277;51.354;6.740;2023-01-16T09:17:53;3.90;;;0.63;;
8480;SDS011;4277;51.354;6.740;2023-01-16T09:20:19;2.77;;;0.80;;
8480;SDS011;4277;51.354;6.740;2023-01-16T09:22:45;3.93;;;0.80;;
8480;SDS011;4277;51.354;6.740;2023-01-16T09:25:11;1.13;;;0.63;;
8480;SDS011;4277;51.354;6.740;2023-01-16T09:27:37;3.43;;;0.83;;
8480;SDS011;4277;51.354;6.740;2023-01-16T09:30:03;1.53;;;0.80;;
8480;SDS011;4277;51.354;6.740;2023-01-16T09:32:29;0.77;;;0.50;;
8480;SDS011;4277;51.354;6.740;2023-01-16T09:34:55;2.23;;;0.77;;
8480;SDS011;4277;51.354;6.740;2023-01-16T09:37:22;1.50;;;0.70;;
8480;SDS011;4277;51.354;6.740;2023-01-16T09:39:48;3.27;;;0.80;;
8480;SDS011;4277;51.354;6.740;2023-01-16T09:45:08;0.90;;;0.43;;
8480;SDS011;4277;51.354;6.740;2023-01-16T09:47:36;1.20;;;0.80;;
8480;SDS011;4277;51.354;6.740;2023-01-16T09:50:11;2.60;;;0.60;;
8480;SDS011;4277;51.354;6.740;2023-01-16T09:52:38;3.03;;;0.80;;
8480;SDS011;4277;51.354;6.740;2023-01-16T09:58:28;1.73;;;0.50;;
8480;SDS011;4277;51.354;6.740;2023-01-16T10:01:15;2.13;;;0.50;;
8480;SDS011;4277;51.354;6.740;2023-01-16T10:03:42;3.13;;;0.77;;
8480;SDS011;4277;51.354;6.740;2023-01-16T10:06:23;2.47;;;0.80;;
8480;SDS011;4277;51.354;6.740;2023-01-16T10:08:57;1.60;;;0.70;;
8480;SDS011;4277;51.354;6.740;2023-01-16T10:11:31;1.53;;;0.63;;
8480;SDS011;4277;51.354;6.740;2023-01-16T10:14:08;3.10;;;0.73;;
8480;SDS011;4277;51.354;6.740;2023-01-16T10:27:19;2.47;;;0.60;;
8480;SDS011;4277;51.354;6.740;2023-01-16T10:35:01;2.03;;;0.70;;
8480;SDS011;4277;51.354;6.740;2023-01-16T10:37:31;1.17;;;0.70;;
8480;SDS011;4277;51.354;6.740;2023-01-16T10:39:58;2.10;;;0.83;;
8480;SDS011;4277;51.354;6.740;2023-01-16T10:42:26;1.77;;;0.57;;
8480;SDS011;4277;51.354;6.740;2023-01-16T10:47:58;1.37;;;0.47;;
8480;SDS011;4277;51.354;6.740;2023-01-16T10:50:42;1.03;;;0.40;;
8480;SDS011;4277;51.354;6.740;2023-01-16T10:53:09;1.60;;;0.50;;
8480;SDS011;4277;51.354;6.740;2023-01-16T10:55:37;1.63;;;0.40;;
8480;SDS011;4277;51.354;6.740;2023-01-16T10:58:06;0.53;;;0.50;;
8480;SDS011;4277;51.354;6.740;2023-01-16T11:00:33;1.00;;;0.50;;
8480;SDS011;4277;51.354;6.740;2023-01-16T11:05:38;0.80;;;0.47;;
8480;SDS011;4277;51.354;6.740;2023-01-16T11:08:12;0.63;;;0.50;;
8480;SDS011;4277;51.354;6.740;2023-01-16T11:10:39;0.83;;;0.40;;
8480;SDS011;4277;51.354;6.740;2023-01-16T11:13:05;1.17;;;0.43;;
8480;SDS011;4277;51.354;6.740;2023-01-16T11:16:00;1.00;;;0.50;;
8480;SDS011;4277;51.354;6.740;2023-01-16T11:18:44;1.07;;;0.50;;
8480;SDS011;4277;51.354;6.740;2023-01-16T11:23:40;2.87;;;0.70;;
8480;SDS011;4277;51.354;6.740;2023-01-16T11:26:07;1.07;;;0.53;;
8480;SDS011;4277;51.354;6.740;2023-01-16T11:28:33;2.50;;;0.40;;
8480;SDS011;4277;51.354;6.740;2023-01-16T11:31:08;1.20;;;0.30;;
8480;SDS011;4277;51.354;6.740;2023-01-16T11:33:44;1.63;;;0.60;;
8480;SDS011;4277;51.354;6.740;2023-01-16T11:36:12;0.50;;;0.40;;
8480;SDS011;4277;51.354;6.740;2023-01-16T11:38:42;1.27;;;0.50;;
8480;SDS011;4277;51.354;6.740;2023-01-16T11:41:09;0.80;;;0.40;;
8480;SDS011;4277;51.354;6.740;2023-01-16T11:43:35;0.87;;;0.30;;
8480;SDS011;4277;51.354;6.740;2023-01-16T11:48:49;0.90;;;0.40;;
8480;SDS011;4277;51.354;6.740;2023-01-16T11:51:18;0.93;;;0.53;;
8480;SDS011;4277;51.354;6.740;2023-01-16T11:53:47;0.50;;;0.40;;
8480;SDS011;4277;51.354;6.740;2023-01-16T12:11:29;2.33;;;0.40;;
8480;SDS011;4277;51.354;6.740;2023-01-16T12:19:40;1.13;;;0.63;;
8480;SDS011;4277;51.354;6.740;2023-01-16T12:30:14;2.80;;;0.40;;
8480;SDS011;4277;51.354;6.740;2023-01-16T12:32:51;0.30;;;0.30;;
8480;SDS011;4277;51.354;6.740;2023-01-16T12:37:54;0.63;;;0.40;;
8480;SDS011;4277;51.354;6.740;2023-01-16T12:43:10;0.80;;;0.50;;
8480;SDS011;4277;51.354;6.740;2023-01-16T12:53:36;0.93;;;0.40;;
8480;SDS011;4277;51.354;6.740;2023-01-16T12:59:02;0.93;;;0.57;;
8480;SDS011;4277;51.354;6.740;2023-01-16T13:01:36;0.67;;;0.50;;
8480;SDS011;4277;51.354;6.740;2023-01-16T13:06:53;0.80;;;0.50;;
8480;SDS011;4277;51.354;6.740;2023-01-16T13:09:22;0.80;;;0.50;;
8480;SDS011;4277;51.354;6.740;2023-01-16T13:12:05;0.60;;;0.40;;
8480;SDS011;4277;51.354;6.740;2023-01-16T13:14:55;3.70;;;0.50;;
8480;SDS011;4277;51.354;6.740;2023-01-16T13:17:23;1.60;;;0.60;;
8480;SDS011;4277;51.354;6.740;2023-01-16T13:19:51;0.53;;;0.50;;
8480;SDS011;4277;51.354;6.740;2023-01-16T13:22:24;1.77;;;0.60;;
8480;SDS011;4277;51.354;6.740;2023-01-16T13:24:59;1.77;;;0.53;;
8480;SDS011;4277;51.354;6.740;2023-01-16T13:27:39;1.97;;;0.60;;
8480;SDS011;4277;51.354;6.740;2023-01-16T13:30:12;1.40;;;0.80;;
8480;SDS011;4277;51.354;6.740;2023-01-16T13:32:39;0.70;;;0.50;;
8480;SDS011;4277;51.354;6.740;2023-01-16T13:35:10;1.20;;;0.47;;
8480;SDS011;4277;51.354;6.740;2023-01-16T13:42:33;1.37;;;0.60;;
8480;SDS011;4277;51.354;6.740;2023-01-16T13:45:02;1.13;;;0.63;;
8480;SDS011;4277;51.354;6.740;2023-01-16T13:47:47;2.20;;;0.70;;
8480;SDS011;4277;51.354;6.740;2023-01-16T13:50:24;1.70;;;0.73;;
8480;SDS011;4277;51.354;6.740;2023-01-16T13:52:54;0.97;;;0.50;;
8480;SDS011;4277;51.354;6.740;2023-01-16T13:55:28;0.80;;;0.43;;
8480;SDS011;4277;51.354;6.740;2023-01-16T13:57:56;1.87;;;0.43;;
8480;SDS011;4277;51.354;6.740;2023-01-16T14:00:31;0.90;;;0.60;;
8480;SDS011;4277;51.354;6.740;2023-01-16T14:03:15;1.27;;;0.63;;
8480;SDS011;4277;51.354;6.740;2023-01-16T14:05:44;0.77;;;0.53;;
8480;SDS011;4277;51.354;6.740;2023-01-16T14:08:14;0.90;;;0.67;;
8480;SDS011;4277;51.354;6.740;2023-01-16T14:11:56;0.90;;;0.50;;
8480;SDS011;4277;51.354;6.740;2023-01-16T14:13:49;2.20;;;0.83;;
8480;SDS011;4277;51.354;6.740;2023-01-16T14:16:35;2.03;;;0.70;;
8480;SDS011;4277;51.354;6.740;2023-01-16T14:21:42;1.47;;;0.50;;
8480;SDS011;4277;51.354;6.740;2023-01-16T14:24:28;1.50;;;0.60;;
8480;SDS011;4277;51.354;6.740;2023-01-16T14:27:02;1.33;;;0.80;;
8480;SDS011;4277;51.354;6.740;2023-01-16T14:29:50;1.53;;;0.80;;
8480;SDS011;4277;51.354;6.740;2023-01-16T14:32:17;1.57;;;0.80;;
8480;SDS011;4277;51.354;6.740;2023-01-16T14:37:15;2.20;;;0.70;;
8480;SDS011;4277;51.354;6.740;2023-01-16T14:39:49;0.93;;;0.50;;
8480;SDS011;4277;51.354;6.740;2023-01-16T14:42:19;2.87;;;0.70;;
8480;SDS011;4277;51.354;6.740;2023-01-16T14:47:52;1.47;;;0.70;;
8480;SDS011;4277;51.354;6.740;2023-01-16T14:50:44;0.97;;;0.60;;
8480;SDS011;4277;51.354;6.740;2023-01-16T14:53:29;1.67;;;0.70;;
8480;SDS011;4277;51.354;6.740;2023-01-16T14:56:21;1.13;;;0.60;;
8480;SDS011;4277;51.354;6.740;2023-01-16T14:58:48;1.63;;;0.70;;
8480;SDS011;4277;51.354;6.740;2023-01-16T15:01:19;1.17;;;0.80;;
8480;SDS011;4277;51.354;6.740;2023-01-16T15:04:05;0.53;;;0.50;;
8480;SDS011;4277;51.354;6.740;2023-01-16T15:06:38;1.03;;;0.67;;
8480;SDS011;4277;51.354;6.740;2023-01-16T15:09:05;1.50;;;0.90;;
8480;SDS011;4277;51.354;6.740;2023-01-16T15:11:37;0.63;;;0.50;;
8480;SDS011;4277;51.354;6.740;2023-01-16T15:14:13;1.03;;;0.50;;
8480;SDS011;4277;51.354;6.740;2023-01-16T15:16:54;2.20;;;0.53;;
8480;SDS011;4277;51.354;6.740;2023-01-16T15:19:53;1.03;;;0.50;;
8480;SDS011;4277;51.354;6.740;2023-01-16T15:22:45;1.13;;;0.60;;
8480;SDS011;4277;51.354;6.740;2023-01-16T15:25:16;2.43;;;0.57;;
8480;SDS011;4277;51.354;6.740;2023-01-16T15:27:44;1.30;;;0.67;;
8480;SDS011;4277;51.354;6.740;2023-01-16T15:30:13;1.27;;;0.57;;
8480;SDS011;4277;51.354;6.740;2023-01-16T15:32:56;1.23;;;0.67;;
8480;SDS011;4277;51.354;6.740;2023-01-16T15:35:41;1.60;;;0.60;;
8480;SDS011;4277;51.354;6.740;2023-01-16T15:38:08;1.07;;;0.70;;
8480;SDS011;4277;51.354;6.740;2023-01-16T15:40:34;0.87;;;0.60;;
8480;SDS011;4277;51.354;6.740;2023-01-16T15:43:01;0.93;;;0.73;;
8480;SDS011;4277;51.354;6.740;2023-01-16T15:46:31;0.70;;;0.67;;
8480;SDS011;4277;51.354;6.740;2023-01-16T15:49:29;1.03;;;0.90;;
8480;SDS011;4277;51.354;6.740;2023-01-16T15:51:50;2.20;;;0.80;;
8480;SDS011;4277;51.354;6.740;2023-01-16T15:54:16;2.70;;;0.80;;
8480;SDS011;4277;51.354;6.740;2023-01-16T15:56:43;0.93;;;0.90;;
8480;SDS011;4277;51.354;6.740;2023-01-16T16:01:47;1.63;;;1.00;;
8480;SDS011;4277;51.354;6.740;2023-01-16T16:04:12;1.23;;;0.90;;
8480;SDS011;4277;51.354;6.740;2023-01-16T16:06:39;1.47;;;0.90;;
8480;SDS011;4277;51.354;6.740;2023-01-16T16:09:05;2.53;;;0.90;;
8480;SDS011;4277;51.354;6.740;2023-01-16T16:11:32;1.53;;;1.00;;
8480;SDS011;4277;51.354;6.740;2023-01-16T16:17:05;1.03;;;0.93;;
8480;SDS011;4277;51.354;6.740;2023-01-16T16:19:50;1.97;;;1.30;;
8480;SDS011;4277;51.354;6.740;2023-01-16T16:22:19;1.83;;;1.33;;
8480;SDS011;4277;51.354;6.740;2023-01-16T16:25:48;1.67;;;1.50;;
8480;SDS011;4277;51.354;6.740;2023-01-16T16:27:54;2.10;;;1.70;;
8480;SDS011;4277;51.354;6.740;2023-01-16T16:30:25;1.70;;;1.50;;
8480;SDS011;4277;51.354;6.740;2023-01-16T16:32:51;2.60;;;1.70;;
8480;SDS011;4277;51.354;6.740;2023-01-16T16:35:33;1.90;;;1.70;;
8480;SDS011;4277;51.354;6.740;2023-01-16T16:38:00;1.87;;;1.53;;
8480;SDS011;4277;51.354;6.740;2023-01-16T16:40:26;1.60;;;1.50;;
8480;SDS011;4277;51.354;6.740;2023-01-16T16:42:53;2.40;;;1.53;;
8480;SDS011;4277;51.354;6.740;2023-01-16T16:47:46;1.70;;;1.60;;
8480;SDS011;4277;51.354;6.740;2023-01-16T16:53:16;2.00;;;1.80;;
8480;SDS011;4277;51.354;6.740;2023-01-16T16:55:48;1.73;;;1.60;;
8480;SDS011;4277;51.354;6.740;2023-01-16T16:58:19;1.93;;;1.63;;
8480;SDS011;4277;51.354;6.740;2023-01-16T17:00:46;1.60;;;1.50;;
8480;SDS011;4277;51.354;6.740;2023-01-16T17:03:16;1.90;;;1.57;;
8480;SDS011;4277;51.354;6.740;2023-01-16T17:05:43;2.33;;;1.63;;
8480;SDS011;4277;51.354;6.740;2023-01-16T17:08:13;2.23;;;1.63;;
8480;SDS011;4277;51.354;6.740;2023-01-16T17:10:40;2.03;;;1.50;;
8480;SDS011;4277;51.354;6.740;2023-01-16T17:13:07;1.67;;;1.50;;
8480;SDS011;4277;51.354;6.740;2023-01-16T17:15:33;1.60;;;1.50;;
8480;SDS011;4277;51.354;6.740;2023-01-16T17:17:59;1.93;;;1.50;;
8480;SDS011;4277;51.354;6.740;2023-01-16T17:20:25;1.90;;;1.50;;
8480;SDS011;4277;51.354;6.740;2023-01-16T17:22:51;1.50;;;1.40;;
8480;SDS011;4277;51.354;6.740;2023-01-16T17:25:17;1.60;;;1.50;;
8480;SDS011;4277;51.354;6.740;2023-01-16T17:27:45;3.10;;;1.60;;
8480;SDS011;4277;51.354;6.740;2023-01-16T17:30:14;2.17;;;1.80;;
8480;SDS011;4277;51.354;6.740;2023-01-16T17:32:40;2.00;;;1.80;;
8480;SDS011;4277;51.354;6.740;2023-01-16T17:35:13;2.23;;;2.00;;
8480;SDS011;4277;51.354;6.740;2023-01-16T17:37:40;2.07;;;1.87;;
8480;SDS011;4277;51.354;6.740;2023-01-16T17:40:06;2.20;;;2.00;;
8480;SDS011;4277;51.354;6.740;2023-01-16T17:42:32;2.77;;;2.20;;
8480;SDS011;4277;51.354;6.740;2023-01-16T17:48:11;2.50;;;2.30;;
8480;SDS011;4277;51.354;6.740;2023-01-16T17:50:37;3.27;;;2.57;;
8480;SDS011;4277;51.354;6.740;2023-01-16T17:53:03;2.90;;;2.70;;
8480;SDS011;4277;51.354;6.740;2023-01-16T17:55:29;2.50;;;2.30;;
8480;SDS011;4277;51.354;6.740;2023-01-16T17:58:14;3.17;;;2.83;;
8480;SDS011;4277;51.354;6.740;2023-01-16T18:00:40;2.63;;;2.40;;
8480;SDS011;4277;51.354;6.740;2023-01-16T18:03:06;3.43;;;2.43;;
8480;SDS011;4277;51.354;6.740;2023-01-16T18:05:33;2.83;;;2.60;;